Time;durP1;ratioP1;P1;durP2;ratioP2;P2;SDS_P1;SDS_P2;PMS_P1;PMS_P2;Temp;Humidity;BMP_temperature;BMP_pressure;BME280_temperature;BME280_humidity;BME280_pressure;Samples;Min_cycle;Max_cycle;Signal;HPM_P1;HPM_P2
2022/07/27 00:02:42;;;;;;;0.40;0.40;;;15.90;99.90;;;;;;5136149;27;20467;-66
2022/07/27 00:05:38;;;;;;;0.70;0.70;;;15.90;99.90;;;;;;5136350;27;20822;-66
2022/07/27 00:08:27;;;;;;;0.50;0.50;;;15.90;99.90;;;;;;5136077;27;20448;-68
2022/07/27 00:11:15;;;;;;;0.40;0.40;;;15.90;99.90;;;;;;5136796;27;20973;-68
2022/07/27 00:14:03;;;;;;;0.40;0.40;;;15.80;99.90;;;;;;5136676;27;20428;-71
2022/07/27 00:16:51;;;;;;;0.50;0.50;;;15.80;99.90;;;;;;5135999;27;20976;-67
2022/07/27 00:19:40;;;;;;;0.50;0.50;;;15.70;99.90;;;;;;5134306;27;20429;-67
2022/07/27 00:22:29;;;;;;;0.50;0.50;;;15.50;99.90;;;;;;5136142;27;20702;-68
2022/07/27 00:25:17;;;;;;;0.50;0.50;;;15.40;99.90;;;;;;5134846;27;20474;-70
2022/07/27 00:28:05;;;;;;;0.40;0.40;;;15.30;99.90;;;;;;5135939;27;20417;-66
2022/07/27 00:30:53;;;;;;;0.50;0.50;;;15.20;99.90;;;;;;5135571;27;20989;-68
2022/07/27 00:33:41;;;;;;;0.50;0.50;;;15.10;99.90;;;;;;5135869;27;20420;-67
2022/07/27 00:36:30;;;;;;;0.40;0.40;;;15.00;99.90;;;;;;5135429;27;20447;-69
2022/07/27 00:39:19;;;;;;;0.50;0.50;;;14.90;99.90;;;;;;5135690;27;20424;-67
2022/07/27 00:42:07;;;;;;;0.70;0.70;;;14.90;99.90;;;;;;5136251;27;20937;-67
2022/07/27 00:44:56;;;;;;;0.50;0.50;;;14.80;99.90;;;;;;5136019;27;20471;-67
2022/07/27 00:47:44;;;;;;;0.40;0.40;;;14.70;99.90;;;;;;5134592;27;20452;-68
2022/07/27 00:50:33;;;;;;;0.50;0.50;;;14.60;99.90;;;;;;5144690;27;20835;-66
2022/07/27 00:53:21;;;;;;;0.50;0.50;;;14.50;99.90;;;;;;5145505;27;20417;-66
2022/07/27 00:56:11;;;;;;;0.40;0.40;;;14.50;99.90;;;;;;5145685;27;20466;-67
2022/07/27 00:58:59;;;;;;;0.70;0.70;;;14.50;99.90;;;;;;5145108;27;20428;-67
2022/07/27 01:01:47;;;;;;;0.83;0.70;;;14.40;99.90;;;;;;5144577;27;20417;-66
2022/07/27 01:04:36;;;;;;;0.50;0.50;;;14.40;99.90;;;;;;5146804;27;20468;-67
2022/07/27 01:07:25;;;;;;;0.50;0.50;;;14.40;99.90;;;;;;5145812;27;20481;-67
2022/07/27 01:10:13;;;;;;;0.40;0.40;;;14.30;99.90;;;;;;5146114;27;20417;-66
2022/07/27 01:13:03;;;;;;;0.50;0.50;;;14.30;99.90;;;;;;5144799;27;20424;-67
2022/07/27 01:15:52;;;;;;;1.57;1.47;;;14.30;99.90;;;;;;5144912;27;20444;-67
2022/07/27 01:18:42;;;;;;;0.40;0.40;;;14.20;99.90;;;;;;5145843;27;20425;-67
2022/07/27 01:21:34;;;;;;;0.50;0.50;;;14.20;99.90;;;;;;5143787;27;20424;-66
2022/07/27 01:24:22;;;;;;;0.50;0.50;;;14.10;99.90;;;;;;5142946;27;20513;-67
2022/07/27 01:27:10;;;;;;;0.50;0.50;;;14.10;99.90;;;;;;5135980;27;20437;-67
2022/07/27 01:29:59;;;;;;;0.50;0.50;;;14.00;99.90;;;;;;5135588;27;20493;-67
2022/07/27 01:32:47;;;;;;;0.50;0.50;;;14.00;99.90;;;;;;5135850;27;20424;-67
2022/07/27 01:35:36;;;;;;;0.47;0.47;;;14.00;99.90;;;;;;5135512;27;20474;-67
2022/07/27 01:38:26;;;;;;;0.40;0.40;;;13.90;99.90;;;;;;5135415;27;20417;-72
2022/07/27 01:41:14;;;;;;;0.50;0.50;;;13.90;99.90;;;;;;5134198;27;20447;-68
2022/07/27 01:44:02;;;;;;;0.50;0.50;;;13.80;99.90;;;;;;5135189;27;20460;-67
2022/07/27 01:46:50;;;;;;;0.50;0.50;;;13.70;99.90;;;;;;5134790;27;20509;-67
2022/07/27 01:49:38;;;;;;;0.50;0.50;;;13.70;99.90;;;;;;5134445;27;20469;-66
2022/07/27 01:52:27;;;;;;;0.50;0.50;;;13.70;99.90;;;;;;5134615;27;20424;-67
2022/07/27 01:55:16;;;;;;;0.50;0.50;;;13.70;99.90;;;;;;5134298;27;20417;-67
2022/07/27 01:58:06;;;;;;;0.40;0.40;;;13.60;99.90;;;;;;5132777;27;20432;-67
2022/07/27 02:00:54;;;;;;;0.50;0.50;;;13.60;99.90;;;;;;5132864;27;20432;-66
2022/07/27 02:03:42;;;;;;;0.40;0.40;;;13.60;99.90;;;;;;5134154;27;20510;-67
2022/07/27 02:06:30;;;;;;;0.40;0.40;;;13.60;99.90;;;;;;5133824;27;20486;-68
2022/07/27 02:09:19;;;;;;;0.50;0.50;;;13.60;99.90;;;;;;5134244;27;20446;-68
2022/07/27 02:15:18;;;;;;;0.50;0.50;;;13.50;99.90;;;;;;5134997;27;20840;-67
2022/07/27 02:18:06;;;;;;;0.50;0.50;;;13.40;99.90;;;;;;5133943;27;20844;-66
2022/07/27 02:21:14;;;;;;;0.40;0.40;;;13.40;99.90;;;;;;5133853;27;20424;-67
2022/07/27 02:24:02;;;;;;;0.50;0.50;;;13.40;99.90;;;;;;5134972;27;20448;-67
2022/07/27 02:26:50;;;;;;;0.50;0.50;;;13.30;99.90;;;;;;5133889;27;20443;-67
2022/07/27 02:29:40;;;;;;;0.40;0.40;;;13.30;99.90;;;;;;5134795;27;20997;-66
2022/07/27 02:32:28;;;;;;;0.50;0.50;;;13.30;99.90;;;;;;5133020;27;20420;-66
2022/07/27 02:35:16;;;;;;;0.50;0.50;;;13.20;99.90;;;;;;5133988;27;20503;-67
2022/07/27 02:38:06;;;;;;;0.50;0.50;;;13.20;99.90;;;;;;5134575;27;20416;-67
2022/07/27 02:40:54;;;;;;;0.50;0.50;;;13.10;99.90;;;;;;5132955;27;20436;-67
2022/07/27 02:43:42;;;;;;;0.50;0.50;;;13.10;99.90;;;;;;5134418;27;20412;-68
2022/07/27 02:46:31;;;;;;;0.50;0.50;;;13.10;99.90;;;;;;5112496;28;20453;-68
2022/07/27 02:49:20;;;;;;;0.60;0.60;;;13.10;99.90;;;;;;5112827;28;20430;-66
2022/07/27 02:52:09;;;;;;;0.40;0.40;;;13.10;99.90;;;;;;5113310;28;20417;-67
2022/07/27 02:54:57;;;;;;;0.50;0.50;;;13.10;99.90;;;;;;5132913;28;20425;-67
2022/07/27 02:57:45;;;;;;;0.50;0.50;;;13.10;99.90;;;;;;5132741;28;20477;-66
2022/07/27 03:00:33;;;;;;;0.40;0.40;;;13.10;99.90;;;;;;5133998;28;20421;-67
2022/07/27 03:03:23;;;;;;;0.60;0.60;;;13.10;99.90;;;;;;5133964;28;20424;-66
2022/07/27 03:06:23;;;;;;;0.50;0.50;;;13.10;99.90;;;;;;5134255;28;20531;-66
2022/07/27 03:09:12;;;;;;;0.50;0.50;;;13.10;99.90;;;;;;5133958;28;20412;-66
2022/07/27 03:12:00;;;;;;;0.43;0.43;;;13.10;99.90;;;;;;5132952;28;20417;-67
2022/07/27 03:14:49;;;;;;;0.40;0.40;;;13.20;99.90;;;;;;5132961;28;20485;-67
2022/07/27 03:17:37;;;;;;;0.50;0.50;;;13.20;99.90;;;;;;5132684;28;20982;-67
2022/07/27 03:20:26;;;;;;;0.50;0.50;;;13.20;99.90;;;;;;5132989;28;20420;-67
2022/07/27 03:23:15;;;;;;;0.40;0.40;;;13.20;99.90;;;;;;5133578;28;20484;-67
2022/07/27 03:26:03;;;;;;;0.50;0.50;;;13.20;99.90;;;;;;5131956;28;20976;-67
2022/07/27 03:28:51;;;;;;;0.50;0.50;;;13.10;99.90;;;;;;5133961;27;20802;-67
2022/07/27 03:31:39;;;;;;;0.50;0.50;;;13.20;99.90;;;;;;5136742;27;20424;-67
2022/07/27 03:34:28;;;;;;;0.50;0.50;;;13.20;99.90;;;;;;5137564;27;20847;-67
2022/07/27 03:37:18;;;;;;;0.50;0.50;;;13.20;99.90;;;;;;5136785;27;20444;-67
2022/07/27 03:40:08;;;;;;;0.40;0.40;;;13.20;99.90;;;;;;5136742;27;20420;-71
2022/07/27 03:42:56;;;;;;;0.40;0.40;;;13.20;99.90;;;;;;5137834;27;20423;-68
2022/07/27 03:45:45;;;;;;;0.40;0.40;;;13.10;99.90;;;;;;5135934;27;20467;-67
2022/07/27 03:48:33;;;;;;;0.50;0.50;;;13.10;99.90;;;;;;5136144;27;20421;-67
2022/07/27 03:51:21;;;;;;;0.40;0.40;;;13.10;99.90;;;;;;5136359;27;20423;-67
2022/07/27 03:54:11;;;;;;;0.50;0.50;;;13.00;99.90;;;;;;5136780;27;20427;-67
2022/07/27 03:57:00;;;;;;;0.50;0.50;;;13.00;99.90;;;;;;5137636;27;20968;-68
2022/07/27 03:59:48;;;;;;;0.40;0.40;;;12.90;99.90;;;;;;5135376;27;20419;-66
2022/07/27 04:02:36;;;;;;;0.50;0.50;;;12.90;99.90;;;;;;5136841;27;21009;-67
2022/07/27 04:05:25;;;;;;;0.40;0.40;;;12.90;99.90;;;;;;5136502;27;20474;-66
2022/07/27 04:08:19;;;;;;;0.50;0.50;;;12.90;99.90;;;;;;5136331;27;20413;-67
2022/07/27 04:11:08;;;;;;;0.50;0.50;;;12.90;99.90;;;;;;5136817;27;20428;-67
2022/07/27 04:13:58;;;;;;;0.40;0.40;;;12.90;99.90;;;;;;5136694;27;20500;-68
2022/07/27 04:16:48;;;;;;;0.50;0.50;;;12.90;99.90;;;;;;5136328;27;20464;-67
2022/07/27 04:19:36;;;;;;;0.40;0.40;;;12.80;99.90;;;;;;5135409;27;20444;-66
2022/07/27 04:22:24;;;;;;;0.50;0.50;;;12.90;99.90;;;;;;5134802;27;20427;-67
2022/07/27 04:25:12;;;;;;;0.50;0.50;;;12.90;99.90;;;;;;5134566;27;20463;-67
2022/07/27 04:28:02;;;;;;;0.50;0.50;;;12.80;99.90;;;;;;5135209;27;20416;-67
2022/07/27 04:30:50;;;;;;;0.50;0.50;;;12.90;99.90;;;;;;5135171;27;20421;-66
2022/07/27 04:33:39;;;;;;;0.40;0.40;;;12.80;99.90;;;;;;5136191;27;20417;-67
2022/07/27 04:36:27;;;;;;;0.40;0.40;;;12.90;99.90;;;;;;5135994;27;20478;-68
2022/07/27 04:39:15;;;;;;;0.50;0.50;;;12.90;99.90;;;;;;5134490;27;20948;-66
2022/07/27 04:42:03;;;;;;;0.50;0.50;;;13.00;99.90;;;;;;5136767;27;20420;-68
2022/07/27 04:44:53;;;;;;;0.40;0.40;;;13.10;99.90;;;;;;5133794;27;20432;-67
2022/07/27 04:47:41;;;;;;;0.50;0.50;;;13.20;99.90;;;;;;5135892;27;20456;-67
2022/07/27 04:50:29;;;;;;;0.40;0.40;;;13.20;99.90;;;;;;5134488;27;21001;-67
2022/07/27 04:53:17;;;;;;;0.50;0.50;;;13.30;99.90;;;;;;5136065;27;20420;-67
2022/07/27 04:56:06;;;;;;;0.50;0.50;;;13.30;99.90;;;;;;5134134;27;20436;-67
2022/07/27 04:58:54;;;;;;;0.50;0.50;;;13.30;99.90;;;;;;5135296;27;20413;-66
2022/07/27 05:01:44;;;;;;;0.50;0.50;;;13.40;99.90;;;;;;5136026;27;20465;-66
2022/07/27 05:04:32;;;;;;;0.50;0.50;;;13.40;99.90;;;;;;5134867;27;20508;-66
2022/07/27 05:07:20;;;;;;;0.50;0.50;;;13.40;99.90;;;;;;5135262;27;20429;-67
2022/07/27 05:10:09;;;;;;;0.50;0.50;;;13.40;99.90;;;;;;5135167;27;20469;-67
2022/07/27 05:13:01;;;;;;;0.40;0.40;;;13.30;99.90;;;;;;5134158;27;20455;-66
2022/07/27 05:15:54;;;;;;;0.50;0.50;;;13.30;99.90;;;;;;5135465;27;20485;-67
2022/07/27 05:18:44;;;;;;;0.40;0.40;;;13.30;99.90;;;;;;5134987;27;20970;-67
2022/07/27 05:21:32;;;;;;;0.50;0.50;;;13.30;99.90;;;;;;5133084;27;20412;-68
2022/07/27 05:24:21;;;;;;;0.50;0.50;;;13.40;99.90;;;;;;5134404;27;20421;-67
2022/07/27 05:27:09;;;;;;;0.40;0.40;;;13.40;99.90;;;;;;5134171;27;20530;-66
2022/07/27 05:29:57;;;;;;;2.80;2.70;;;13.40;99.90;;;;;;5133219;27;20443;-67
2022/07/27 05:32:45;;;;;;;0.50;0.50;;;13.50;99.90;;;;;;5133235;27;20448;-66
2022/07/27 05:35:35;;;;;;;0.50;0.50;;;13.60;99.90;;;;;;5133753;27;20413;-66
2022/07/27 05:38:24;;;;;;;0.50;0.50;;;13.70;99.90;;;;;;5133067;27;20795;-67
2022/07/27 05:41:12;;;;;;;0.50;0.50;;;13.80;99.90;;;;;;5134589;27;20428;-66
2022/07/27 05:44:00;;;;;;;0.40;0.40;;;13.90;99.90;;;;;;5135066;27;20449;-68
2022/07/27 05:46:48;;;;;;;0.50;0.50;;;14.00;99.90;;;;;;5134068;27;20884;-66
2022/07/27 05:49:36;;;;;;;0.50;0.50;;;14.10;99.90;;;;;;5132922;27;20996;-66
2022/07/27 05:52:25;;;;;;;0.50;0.50;;;14.20;99.90;;;;;;5133942;27;20424;-67
2022/07/27 05:55:13;;;;;;;0.50;0.50;;;14.30;99.90;;;;;;5132487;27;20420;-67
2022/07/27 05:58:01;;;;;;;0.63;0.50;;;14.30;99.90;;;;;;5133912;27;20413;-66
2022/07/27 06:00:50;;;;;;;0.83;0.83;;;14.40;99.90;;;;;;5130662;27;20428;-67
2022/07/27 06:03:38;;;;;;;0.73;0.73;;;14.50;99.90;;;;;;5119349;27;20536;-67
2022/07/27 06:09:33;;;;;;;0.70;0.70;;;14.70;99.90;;;;;;5129450;27;20424;-67
2022/07/27 06:12:21;;;;;;;0.40;0.40;;;14.80;99.90;;;;;;5133515;27;20424;-68
2022/07/27 06:15:18;;;;;;;0.60;0.60;;;14.90;99.90;;;;;;5134308;27;20432;-66
2022/07/27 06:18:12;;;;;;;0.50;0.50;;;15.10;99.90;;;;;;5132986;27;20500;-68
2022/07/27 06:21:01;;;;;;;0.90;0.50;;;15.30;99.90;;;;;;5133275;27;20429;-67
2022/07/27 06:23:49;;;;;;;20.33;2.00;;;15.40;99.90;;;;;;5133866;27;20454;-67
2022/07/27 06:26:38;;;;;;;0.70;0.53;;;15.60;99.90;;;;;;5133556;27;20460;-67
2022/07/27 06:29:27;;;;;;;0.50;0.50;;;15.50;99.90;;;;;;5133236;27;20477;-67
2022/07/27 06:32:15;;;;;;;0.73;0.73;;;15.50;99.90;;;;;;5132172;27;20490;-67
2022/07/27 06:35:07;;;;;;;0.87;0.87;;;15.50;99.90;;;;;;5132940;27;20425;-70
2022/07/27 06:37:55;;;;;;;2.77;1.07;;;15.70;99.90;;;;;;5133688;27;20857;-66
2022/07/27 06:40:43;;;;;;;0.50;0.50;;;15.70;99.90;;;;;;5132366;27;20428;-66
2022/07/27 06:43:34;;;;;;;0.50;0.50;;;15.80;99.90;;;;;;5133236;27;20420;-66
2022/07/27 06:46:22;;;;;;;0.50;0.50;;;15.90;99.90;;;;;;5133118;27;20472;-68
2022/07/27 06:49:10;;;;;;;0.50;0.50;;;16.00;99.90;;;;;;5131364;27;20429;-67
2022/07/27 06:51:59;;;;;;;0.40;0.40;;;16.20;99.90;;;;;;5133108;28;20417;-65
2022/07/27 06:54:47;;;;;;;0.50;0.50;;;16.30;99.90;;;;;;5133693;28;20440;-66
2022/07/27 06:57:36;;;;;;;2.03;0.90;;;16.40;99.90;;;;;;5132483;28;20948;-66
2022/07/27 07:00:25;;;;;;;0.50;0.50;;;16.50;99.90;;;;;;5133070;28;20420;-67
2022/07/27 07:03:14;;;;;;;0.40;0.40;;;16.50;99.90;;;;;;5125711;27;20447;-66
2022/07/27 07:06:02;;;;;;;1.33;0.50;;;16.60;99.90;;;;;;5129587;27;20486;-67
2022/07/27 07:08:51;;;;;;;0.50;0.50;;;16.70;99.90;;;;;;5131683;27;20195;-67
2022/07/27 07:11:39;;;;;;;2.50;2.30;;;16.70;99.90;;;;;;5132627;27;20493;-66
2022/07/27 07:14:27;;;;;;;0.40;0.40;;;16.70;99.90;;;;;;5139397;27;20436;-66
2022/07/27 07:17:17;;;;;;;0.90;0.50;;;16.80;99.90;;;;;;5137844;27;20221;-67
2022/07/27 07:20:08;;;;;;;0.70;0.70;;;17.00;99.90;;;;;;5137355;27;20198;-67
2022/07/27 07:22:56;;;;;;;0.40;0.40;;;17.10;99.90;;;;;;5117668;28;20195;-67
2022/07/27 07:25:44;;;;;;;0.50;0.50;;;17.10;99.90;;;;;;5128286;27;20194;-67
2022/07/27 07:28:35;;;;;;;1.13;0.70;;;17.10;99.90;;;;;;5130551;27;20199;-66
2022/07/27 07:31:23;;;;;;;0.50;0.50;;;17.10;99.90;;;;;;5136241;27;20198;-66
2022/07/27 07:34:12;;;;;;;0.40;0.40;;;17.20;99.90;;;;;;5138073;27;20424;-67
2022/07/27 07:37:00;;;;;;;0.40;0.40;;;17.20;99.90;;;;;;5136165;27;20210;-66
2022/07/27 07:39:49;;;;;;;0.40;0.40;;;17.30;99.90;;;;;;5136380;27;20209;-65
2022/07/27 07:42:48;;;;;;;1.37;1.27;;;17.60;99.90;;;;;;5132323;27;20206;-67
2022/07/27 07:45:37;;;;;;;0.40;0.40;;;17.60;99.90;;;;;;5115429;28;20188;-66
2022/07/27 07:48:39;;;;;;;0.50;0.50;;;17.80;99.90;;;;;;5115625;28;20692;-67
2022/07/27 07:51:28;;;;;;;0.40;0.40;;;18.00;99.90;;;;;;5118861;27;20199;-66
2022/07/27 07:54:16;;;;;;;3.25;0.88;;;18.00;99.90;;;;;;5135295;27;20195;-66
2022/07/27 07:57:05;;;;;;;0.50;0.50;;;18.00;99.90;;;;;;5125265;27;20230;-66
2022/07/27 07:59:53;;;;;;;0.40;0.40;;;18.00;99.90;;;;;;5130493;27;20210;-69
2022/07/27 08:02:46;;;;;;;0.40;0.40;;;18.00;99.90;;;;;;5125730;27;20195;-69
2022/07/27 08:05:34;;;;;;;0.50;0.50;;;17.90;99.90;;;;;;5135131;27;20207;-66
2022/07/27 08:08:26;;;;;;;0.40;0.40;;;17.90;99.90;;;;;;5134116;27;20211;-67
2022/07/27 08:11:14;;;;;;;0.50;0.50;;;18.00;99.90;;;;;;5134528;27;20265;-68
2022/07/27 08:14:03;;;;;;;0.40;0.40;;;18.10;99.90;;;;;;5127228;27;20199;-67
2022/07/27 08:16:51;;;;;;;0.50;0.50;;;18.10;99.90;;;;;;5133925;27;20593;-66
2022/07/27 08:19:39;;;;;;;0.50;0.50;;;18.10;99.90;;;;;;5135226;27;20251;-67
2022/07/27 08:22:27;;;;;;;0.88;0.60;;;18.20;99.90;;;;;;5134977;27;20693;-67
2022/07/27 08:25:17;;;;;;;0.50;0.50;;;18.10;99.90;;;;;;5136096;27;20195;-66
2022/07/27 08:28:05;;;;;;;0.50;0.50;;;18.20;99.90;;;;;;5135200;27;20299;-66
2022/07/27 08:30:54;;;;;;;0.40;0.40;;;18.20;99.90;;;;;;5134363;27;20269;-66
2022/07/27 08:33:42;;;;;;;0.47;0.47;;;18.10;99.90;;;;;;5113872;28;20192;-66
2022/07/27 08:36:30;;;;;;;0.60;0.60;;;18.20;99.90;;;;;;5115453;28;20219;-68
2022/07/27 08:39:18;;;;;;;0.40;0.40;;;18.10;99.90;;;;;;5114289;28;20199;-69
2022/07/27 08:42:28;;;;;;;0.50;0.50;;;18.20;99.90;;;;;;5113741;28;20801;-66
2022/07/27 08:45:18;;;;;;;0.68;0.68;;;18.60;99.90;;;;;;5125877;27;20206;-69
2022/07/27 08:48:06;;;;;;;0.40;0.40;;;19.00;99.90;;;;;;5134072;27;20291;-70
2022/07/27 08:50:55;;;;;;;0.40;0.40;;;19.40;99.90;;;;;;5135796;27;20198;-69
2022/07/27 08:53:43;;;;;;;0.50;0.50;;;19.40;99.90;;;;;;5137821;27;20199;-67
2022/07/27 08:56:40;;;;;;;0.80;0.60;;;19.10;99.90;;;;;;5136112;27;20222;-69
2022/07/27 08:59:30;;;;;;;0.50;0.50;;;18.70;99.90;;;;;;5133857;27;20190;-66
2022/07/27 09:02:20;;;;;;;0.70;0.60;;;18.50;99.90;;;;;;5129142;27;20574;-67
2022/07/27 09:05:09;;;;;;;0.95;0.95;;;18.40;99.90;;;;;;5133811;27;20202;-70
2022/07/27 09:08:08;;;;;;;0.40;0.40;;;18.40;99.90;;;;;;5134791;27;20290;-66
2022/07/27 09:10:58;;;;;;;0.40;0.40;;;18.40;99.90;;;;;;5134362;27;20199;-66
2022/07/27 09:13:46;;;;;;;0.70;0.50;;;18.70;99.90;;;;;;5134260;27;20205;-66
2022/07/27 09:16:36;;;;;;;0.40;0.40;;;19.20;99.90;;;;;;5126913;27;20215;-66
2022/07/27 09:19:53;;;;;;;0.50;0.50;;;19.50;99.90;;;;;;5127660;27;20669;-68
2022/07/27 09:22:44;;;;;;;0.50;0.50;;;19.70;99.90;;;;;;5133554;27;20206;-66
2022/07/27 09:25:34;;;;;;;0.50;0.50;;;19.70;99.90;;;;;;5134972;27;20203;-68
2022/07/27 09:28:43;;;;;;;0.40;0.40;;;19.50;99.90;;;;;;5131212;27;20351;-66
2022/07/27 09:31:32;;;;;;;0.50;0.50;;;19.30;99.90;;;;;;5131780;27;20234;-68
2022/07/27 09:34:31;;;;;;;1.33;1.02;;;19.30;99.90;;;;;;5124567;27;20328;-69
2022/07/27 09:37:24;;;;;;;0.70;0.50;;;19.40;99.90;;;;;;5132818;27;20214;-66
2022/07/27 09:40:14;;;;;;;0.50;0.50;;;19.40;99.90;;;;;;5132667;27;20745;-67
2022/07/27 09:43:11;;;;;;;0.60;0.60;;;19.90;99.90;;;;;;5130642;27;20281;-68
2022/07/27 09:46:29;;;;;;;0.40;0.40;;;20.10;99.90;;;;;;5118166;27;20758;-65
2022/07/27 09:49:30;;;;;;;0.40;0.40;;;20.50;99.90;;;;;;5114265;27;20246;-66
2022/07/27 09:52:30;;;;;;;0.50;0.50;;;20.70;99.90;;;;;;5123131;27;20203;-67
2022/07/27 09:55:20;;;;;;;0.50;0.50;;;20.40;99.90;;;;;;5126645;27;20194;-68
2022/07/27 09:58:09;;;;;;;0.40;0.40;;;20.00;99.90;;;;;;5132049;27;20190;-68
2022/07/27 10:01:02;;;;;;;0.50;0.50;;;19.90;99.90;;;;;;5132349;27;20209;-69
2022/07/27 10:03:52;;;;;;;0.40;0.40;;;19.40;99.90;;;;;;5132773;27;20206;-66
2022/07/27 10:06:42;;;;;;;0.40;0.40;;;19.40;99.90;;;;;;5124507;27;20221;-68
2022/07/27 10:09:49;;;;;;;0.80;0.70;;;19.60;99.90;;;;;;5131260;27;20286;-68
2022/07/27 10:12:38;;;;;;;0.40;0.40;;;19.60;99.90;;;;;;5111164;28;20198;-67
2022/07/27 10:15:26;;;;;;;0.43;0.43;;;19.90;99.90;;;;;;5110649;28;20214;-68
2022/07/27 10:18:21;;;;;;;0.50;0.50;;;20.30;99.90;;;;;;5110941;28;20245;-71
2022/07/27 10:21:13;;;;;;;0.40;0.40;;;20.60;99.90;;;;;;5111296;28;20207;-68
2022/07/27 10:24:05;;;;;;;0.40;0.40;;;20.90;99.90;;;;;;5129270;27;20202;-68
2022/07/27 10:26:53;;;;;;;0.40;0.40;;;20.90;99.90;;;;;;5131433;27;20226;-68
2022/07/27 10:29:41;;;;;;;0.50;0.50;;;20.90;99.90;;;;;;5131448;27;20221;-67
2022/07/27 10:32:31;;;;;;;0.40;0.40;;;21.30;99.90;;;;;;5132263;27;20735;-68
2022/07/27 10:35:35;;;;;;;0.40;0.40;;;21.50;99.10;;;;;;5131542;27;20579;-66
2022/07/27 10:38:23;;;;;;;0.40;0.40;;;21.60;98.70;;;;;;5127132;27;20278;-67
2022/07/27 10:41:26;;;;;;;0.40;0.40;;;21.80;97.90;;;;;;5130450;27;20206;-68
2022/07/27 10:44:29;;;;;;;0.70;0.70;;;21.50;97.90;;;;;;5132525;27;20190;-66
2022/07/27 10:47:29;;;;;;;0.40;0.40;;;21.60;98.00;;;;;;5131397;27;20237;-67
2022/07/27 10:50:36;;;;;;;0.40;0.40;;;21.80;98.40;;;;;;5131815;27;20225;-67
2022/07/27 10:53:33;;;;;;;0.50;0.50;;;21.90;98.10;;;;;;5125927;28;20601;-68
2022/07/27 10:56:47;;;;;;;0.40;0.40;;;22.00;96.40;;;;;;5125497;28;20341;-69
2022/07/27 10:59:50;;;;;;;0.40;0.40;;;21.60;97.00;;;;;;5130644;28;20190;-66
2022/07/27 11:02:57;;;;;;;0.50;0.50;;;21.20;96.00;;;;;;5131069;28;20203;-67
2022/07/27 11:05:54;;;;;;;0.40;0.40;;;21.70;96.90;;;;;;5131277;28;20198;-67
2022/07/27 11:08:54;;;;;;;0.40;0.40;;;21.80;97.10;;;;;;5130997;28;20598;-67
2022/07/27 11:12:05;;;;;;;0.50;0.50;;;22.40;94.90;;;;;;5128592;28;20239;-67
2022/07/27 11:14:55;;;;;;;0.50;0.50;;;22.50;94.80;;;;;;5131648;28;20247;-66
2022/07/27 11:17:49;;;;;;;0.40;0.40;;;22.40;94.60;;;;;;5131801;28;20233;-67
2022/07/27 11:20:48;;;;;;;0.60;0.60;;;22.60;94.50;;;;;;5131427;28;20273;-67
2022/07/27 11:23:37;;;;;;;0.40;0.40;;;22.50;93.70;;;;;;5132255;28;20199;-67
2022/07/27 11:26:40;;;;;;;0.40;0.40;;;22.40;93.90;;;;;;5131615;28;20305;-67
2022/07/27 11:29:33;;;;;;;0.60;0.60;;;22.00;94.10;;;;;;5120694;28;20779;-67
2022/07/27 11:32:27;;;;;;;1.48;0.70;;;21.80;94.30;;;;;;5119326;28;20199;-69
2022/07/27 11:35:16;;;;;;;0.52;0.52;;;21.80;94.10;;;;;;5121908;28;20214;-69
2022/07/27 11:38:07;;;;;;;0.40;0.40;;;21.90;93.90;;;;;;5132101;28;20199;-66
2022/07/27 11:40:55;;;;;;;0.50;0.50;;;21.80;94.10;;;;;;5112346;28;20206;-67
2022/07/27 11:44:07;;;;;;;0.40;0.40;;;21.60;93.10;;;;;;5120950;28;20207;-70
2022/07/27 11:46:58;;;;;;;0.50;0.50;;;21.50;94.00;;;;;;5126455;28;20235;-67
2022/07/27 11:49:49;;;;;;;0.40;0.40;;;21.40;94.40;;;;;;5129859;27;20218;-67
2022/07/27 11:52:37;;;;;;;0.50;0.50;;;21.50;94.10;;;;;;5134664;27;20227;-68
2022/07/27 11:55:25;;;;;;;0.50;0.50;;;21.80;93.60;;;;;;5134975;27;20198;-69
2022/07/27 11:58:17;;;;;;;0.50;0.50;;;22.20;93.70;;;;;;5135057;27;20198;-67
2022/07/27 12:01:05;;;;;;;0.88;0.55;;;22.60;92.20;;;;;;5126620;27;20200;-66
2022/07/27 12:04:04;;;;;;;0.40;0.40;;;22.80;91.40;;;;;;5132104;27;20198;-67
2022/07/27 12:07:09;;;;;;;0.50;0.50;;;23.10;90.40;;;;;;5134911;27;20222;-66
2022/07/27 12:10:00;;;;;;;0.40;0.40;;;22.80;90.30;;;;;;5126584;27;20248;-66
2022/07/27 12:12:49;;;;;;;0.50;0.50;;;22.40;91.00;;;;;;5129654;27;20218;-68
2022/07/27 12:15:37;;;;;;;0.45;0.45;;;21.90;90.30;;;;;;5134255;27;20675;-65
2022/07/27 12:18:41;;;;;;;0.40;0.40;;;21.80;90.80;;;;;;5134157;27;20731;-70
2022/07/27 12:21:31;;;;;;;0.45;0.45;;;21.70;90.30;;;;;;5133062;27;20675;-67
2022/07/27 12:24:19;;;;;;;0.50;0.50;;;21.80;90.50;;;;;;5134057;27;20205;-66
2022/07/27 12:27:12;;;;;;;1.27;0.80;;;22.20;88.70;;;;;;5126481;27;20222;-66
2022/07/27 12:30:08;;;;;;;0.40;0.40;;;22.60;87.30;;;;;;5134118;27;20703;-67
2022/07/27 12:32:57;;;;;;;0.50;0.50;;;22.60;88.50;;;;;;5133051;27;20195;-66
2022/07/27 12:35:46;;;;;;;5.35;0.50;;;22.60;87.30;;;;;;5132559;27;20214;-66
2022/07/27 12:38:40;;;;;;;0.50;0.50;;;22.80;88.50;;;;;;5133330;27;20202;-64
2022/07/27 12:41:31;;;;;;;0.60;0.60;;;22.90;85.90;;;;;;5123289;27;20195;-67
2022/07/27 12:44:19;;;;;;;0.93;0.50;;;22.50;86.90;;;;;;5114988;27;20223;-65
2022/07/27 12:50:16;;;;;;;0.40;0.40;;;22.30;87.20;;;;;;5132588;27;20299;-65
2022/07/27 12:53:05;;;;;;;0.50;0.50;;;23.00;86.00;;;;;;5129221;27;20191;-70
2022/07/27 12:55:57;;;;;;;2.45;0.60;;;23.60;84.30;;;;;;5132289;27;20283;-67
2022/07/27 12:58:58;;;;;;;0.40;0.40;;;23.50;84.80;;;;;;5129062;27;20191;-65
2022/07/27 13:01:46;;;;;;;0.40;0.40;;;23.50;84.40;;;;;;5111693;28;20190;-66
2022/07/27 13:04:34;;;;;;;0.40;0.40;;;23.30;83.80;;;;;;5092018;28;20711;-65
2022/07/27 13:07:24;;;;;;;0.50;0.50;;;22.80;84.00;;;;;;5092893;28;20227;-66
2022/07/27 13:10:13;;;;;;;0.50;0.50;;;22.70;84.10;;;;;;5102349;28;20290;-65
2022/07/27 13:13:03;;;;;;;0.40;0.40;;;22.60;84.60;;;;;;5112220;28;20207;-64
2022/07/27 13:15:53;;;;;;;0.50;0.50;;;22.80;85.10;;;;;;5108772;28;20191;-66
2022/07/27 13:18:41;;;;;;;0.50;0.50;;;22.90;83.80;;;;;;5092759;28;20208;-66
2022/07/27 13:21:29;;;;;;;0.40;0.40;;;23.00;83.70;;;;;;5112833;28;20188;-64
2022/07/27 13:24:17;;;;;;;0.60;0.60;;;23.30;82.30;;;;;;5117313;27;20222;-66
2022/07/27 13:27:06;;;;;;;0.40;0.40;;;23.40;82.00;;;;;;5131938;27;20234;-65
2022/07/27 13:29:55;;;;;;;0.50;0.50;;;23.50;83.70;;;;;;5129166;27;20220;-66
2022/07/27 13:32:45;;;;;;;0.50;0.50;;;23.70;81.10;;;;;;5127494;27;20604;-66
2022/07/27 13:35:34;;;;;;;0.40;0.40;;;23.80;81.40;;;;;;5131450;27;20693;-64
2022/07/27 13:38:22;;;;;;;0.40;0.40;;;23.80;81.60;;;;;;5132074;27;20206;-65
2022/07/27 13:41:10;;;;;;;0.40;0.40;;;23.60;82.10;;;;;;5131299;27;20194;-66
2022/07/27 13:43:58;;;;;;;0.40;0.40;;;23.70;81.90;;;;;;5133557;27;20679;-66
2022/07/27 13:46:48;;;;;;;0.40;0.40;;;24.20;80.90;;;;;;5130985;27;20230;-65
2022/07/27 13:49:36;;;;;;;0.50;0.40;;;26.60;77.20;;;;;;5131244;27;20482;-65
2022/07/27 13:52:24;;;;;;;0.40;0.40;;;29.90;69.60;;;;;;5119667;27;20202;-65
2022/07/27 13:55:13;;;;;;;0.40;0.40;;;32.30;62.60;;;;;;5132268;27;20205;-64
2022/07/27 13:58:01;;;;;;;0.47;0.47;;;33.20;58.50;;;;;;5131155;27;20202;-64
2022/07/27 14:00:50;;;;;;;0.40;0.40;;;33.10;55.50;;;;;;5131734;27;20191;-64
2022/07/27 14:03:40;;;;;;;0.40;0.40;;;32.40;55.00;;;;;;5116082;27;20225;-63
2022/07/27 14:06:28;;;;;;;0.40;0.40;;;31.30;55.70;;;;;;5132047;27;20700;-65
2022/07/27 14:09:17;;;;;;;0.50;0.50;;;29.90;56.70;;;;;;5131681;27;20691;-64
2022/07/27 14:12:05;;;;;;;0.50;0.50;;;28.20;58.80;;;;;;5131417;27;20328;-65
2022/07/27 14:14:53;;;;;;;0.50;0.50;;;26.70;61.60;;;;;;5131835;27;20205;-65
2022/07/27 14:17:42;;;;;;;0.40;0.40;;;26.00;64.10;;;;;;5131452;27;20223;-64
2022/07/27 14:20:31;;;;;;;0.55;0.55;;;26.60;64.10;;;;;;5110505;28;20188;-64
2022/07/27 14:23:19;;;;;;;0.50;0.50;;;27.50;61.80;;;;;;5118803;22;20236;-66
2022/07/27 14:26:09;;;;;;;0.50;0.50;;;28.30;60.40;;;;;;5088372;28;20211;-66
2022/07/27 14:28:57;;;;;;;0.40;0.40;;;29.00;60.10;;;;;;5084565;28;20275;-66
2022/07/27 14:31:45;;;;;;;0.75;0.60;;;29.40;59.10;;;;;;5092588;28;20196;-65
2022/07/27 14:34:36;;;;;;;0.40;0.40;;;29.30;58.00;;;;;;5108854;28;20219;-66
2022/07/27 14:37:25;;;;;;;0.40;0.40;;;29.90;58.70;;;;;;5112860;28;20199;-65
2022/07/27 14:40:15;;;;;;;2.15;0.63;;;30.20;58.10;;;;;;5112091;28;20203;-65
2022/07/27 14:43:03;;;;;;;0.50;0.50;;;29.30;57.10;;;;;;5111429;28;20223;-65
2022/07/27 14:46:26;;;;;;;0.40;0.40;;;28.60;58.70;;;;;;5079414;28;20249;-65
2022/07/27 14:49:14;;;;;;;0.40;0.40;;;29.00;57.00;;;;;;5086488;28;20238;-65
2022/07/27 14:52:02;;;;;;;0.40;0.40;;;27.90;59.00;;;;;;5092992;28;20204;-66
2022/07/27 14:54:55;;;;;;;0.40;0.40;;;27.40;60.80;;;;;;5091468;28;20215;-65
2022/07/27 14:57:45;;;;;;;0.50;0.50;;;27.10;61.20;;;;;;5092415;28;20671;-69
2022/07/27 15:00:33;;;;;;;0.40;0.40;;;26.20;62.40;;;;;;5089100;28;20201;-65